Time;durP1;ratioP1;P1;durP2;ratioP2;P2;SDS_P1;SDS_P2;PMS_P1;PMS_P2;Temp;Humidity;BMP_temperature;BMP_pressure;BME280_temperature;BME280_humidity;BME280_pressure;Samples;Min_cycle;Max_cycle;Signal;HPM_P1;HPM_P2
2021/08/15 00:00:38;;;;;;;4.73;4.07;;;20.80;99.90;;;;;;6271539;22;20412;-80
2021/08/15 00:03:42;;;;;;;5.07;4.33;;;20.60;99.90;;;;;;6280438;22;20401;-80
2021/08/15 00:07:06;;;;;;;7.27;5.10;;;20.40;99.90;;;;;;6281402;22;20708;-80
2021/08/15 00:09:42;;;;;;;7.97;4.70;;;20.10;99.90;;;;;;6269759;22;20476;-80
2021/08/15 00:12:33;;;;;;;7.57;5.60;;;19.40;99.90;;;;;;6280645;22;20420;-80
2021/08/15 00:15:19;;;;;;;8.60;5.13;;;20.40;99.90;;;;;;6226926;22;20889;-80
2021/08/15 00:18:19;;;;;;;5.73;4.03;;;20.00;99.90;;;;;;6279781;22;20389;-80
2021/08/15 00:21:14;;;;;;;6.07;4.10;;;19.90;99.90;;;;;;6231952;22;20776;-79
2021/08/15 00:24:05;;;;;;;7.30;4.90;;;19.80;99.90;;;;;;6279650;22;20396;-80
2021/08/15 00:26:40;;;;;;;8.87;4.53;;;20.00;99.90;;;;;;6292660;22;20405;-78
2021/08/15 00:29:20;;;;;;;5.03;3.80;;;19.80;99.90;;;;;;6296059;22;20412;-80
2021/08/15 00:34:55;;;;;;;3.90;3.60;;;19.40;99.90;;;;;;6156218;23;20913;-80
2021/08/15 00:46:36;;;;;;;12.00;4.63;;;19.90;99.90;;;;;;6215685;23;20407;-80
2021/08/15 00:49:51;;;;;;;5.40;4.67;;;19.50;99.90;;;;;;6242558;22;20413;-80
2021/08/15 00:52:30;;;;;;;6.80;4.37;;;18.20;99.90;;;;;;6238190;22;20425;-80
2021/08/15 00:55:24;;;;;;;7.10;4.23;;;19.40;99.90;;;;;;6280026;22;20704;-80
2021/08/15 00:58:14;;;;;;;10.80;4.97;;;19.30;99.90;;;;;;6279565;22;20999;-80
2021/08/15 01:03:43;;;;;;;10.50;4.47;;;19.90;99.90;;;;;;6185832;23;20396;-79
2021/08/15 01:06:56;;;;;;;9.90;4.60;;;19.20;99.90;;;;;;6266703;22;20768;-79
2021/08/15 01:09:23;;;;;;;6.30;4.13;;;;;;;;;;6278997;22;20902;-79
2021/08/15 01:11:51;;;;;;;6.70;4.37;;;19.10;99.90;;;;;;6278857;22;20436;-79
2021/08/15 01:14:23;;;;;;;8.73;5.70;;;18.30;99.90;;;;;;6279361;22;20800;-79
2021/08/15 01:16:51;;;;;;;12.50;5.07;;;;;;;;;;6279557;22;20895;-79
2021/08/15 01:19:29;;;;;;;4.87;4.37;;;19.00;99.90;;;;;;6280192;22;20784;-80
2021/08/15 01:21:58;;;;;;;6.10;4.20;;;;;;;;;;6278559;22;20433;-80
2021/08/15 01:24:27;;;;;;;9.23;4.47;;;18.90;99.90;;;;;;6278586;22;20472;-79
2021/08/15 01:26:54;;;;;;;9.47;4.17;;;;;;;;;;6279857;22;20444;-80
2021/08/15 01:29:25;;;;;;;8.03;5.17;;;18.80;99.90;;;;;;6280310;22;20413;-80
2021/08/15 01:31:57;;;;;;;4.90;3.87;;;;;;;;;;6279698;22;20443;-80
2021/08/15 01:34:26;;;;;;;7.63;4.63;;;;;;;;;;6280867;22;20404;-80
2021/08/15 01:36:54;;;;;;;5.27;4.33;;;;;;;;;;6279353;22;20405;-80
2021/08/15 01:39:21;;;;;;;10.40;4.90;;;;;;;;;;6279282;22;20435;-80
2021/08/15 01:41:49;;;;;;;6.73;4.33;;;18.90;99.90;;;;;;6278551;22;20425;-80
2021/08/15 01:44:16;;;;;;;7.20;3.87;;;;;;;;;;6278615;22;20886;-81
2021/08/15 01:46:44;;;;;;;10.97;4.43;;;18.80;99.90;;;;;;6278681;22;20413;-80
2021/08/15 01:49:11;;;;;;;9.13;4.67;;;;;;;;;;6282496;22;20416;-79
2021/08/15 01:51:40;;;;;;;12.37;4.90;;;18.80;99.90;;;;;;6292503;22;20425;-79
2021/08/15 01:54:07;;;;;;;10.23;5.83;;;;;;;;;;6292284;22;20881;-79
2021/08/15 01:56:38;;;;;;;8.57;4.60;;;19.80;99.90;;;;;;6291315;22;20408;-79
2021/08/15 01:59:08;;;;;;;11.40;6.27;;;;;;;;;;6291298;22;20393;-79
2021/08/15 02:01:35;;;;;;;7.93;5.50;;;;;;;;;;6290852;22;20546;-79
2021/08/15 02:04:09;;;;;;;8.57;5.00;;;18.80;99.90;;;;;;6285470;22;20458;-80
2021/08/15 02:06:36;;;;;;;6.00;3.80;;;;;;;;;;6286704;22;20428;-80
2021/08/15 02:09:09;;;;;;;9.13;5.80;;;18.70;99.90;;;;;;6287568;22;20459;-80
2021/08/15 02:11:39;;;;;;;6.77;5.00;;;;;;;;;;6280489;22;20524;-81
2021/08/15 02:14:07;;;;;;;13.60;6.17;;;;;;;;;;6278582;22;20443;-80
2021/08/15 02:16:35;;;;;;;9.03;6.13;;;;;;;;;;6278681;22;20409;-80
2021/08/15 02:19:10;;;;;;;9.43;5.37;;;18.70;99.90;;;;;;6279025;22;20825;-80
2021/08/15 02:21:43;;;;;;;10.93;6.20;;;18.70;99.90;;;;;;6279268;22;20483;-80
2021/08/15 02:24:10;;;;;;;7.40;4.87;;;;;;;;;;6279149;22;20396;-80
2021/08/15 02:26:37;;;;;;;9.97;5.83;;;18.70;99.90;;;;;;6277068;22;20448;-80
2021/08/15 02:29:12;;;;;;;11.83;5.60;;;18.70;99.90;;;;;;6287484;22;20416;-80
2021/08/15 02:31:45;;;;;;;5.60;4.40;;;18.70;99.90;;;;;;6289660;22;20425;-79
2021/08/15 02:34:13;;;;;;;9.27;5.03;;;18.70;99.90;;;;;;6292376;22;20702;-79
2021/08/15 02:36:41;;;;;;;9.00;4.73;;;;;;;;;;6293622;22;20413;-79
2021/08/15 02:39:10;;;;;;;7.67;4.70;;;18.60;99.90;;;;;;6290824;22;20408;-80
2021/08/15 02:41:37;;;;;;;7.57;4.87;;;;;;;;;;6293152;22;20740;-79
2021/08/15 02:44:13;;;;;;;7.47;4.50;;;18.60;99.90;;;;;;6293535;22;20412;-79
2021/08/15 02:49:24;;;;;;;5.90;4.67;;;18.60;99.90;;;;;;6276419;22;20405;-80
2021/08/15 02:51:51;;;;;;;9.13;4.97;;;;;;;;;;6279249;22;20425;-80
2021/08/15 02:54:20;;;;;;;6.27;4.40;;;;;;;;;;6280295;22;20450;-80
2021/08/15 02:56:49;;;;;;;6.67;5.53;;;18.60;99.90;;;;;;6281233;22;20885;-80
2021/08/15 02:59:27;;;;;;;14.70;5.07;;;18.50;99.90;;;;;;6281298;22;20400;-80
2021/08/15 03:01:55;;;;;;;10.73;5.90;;;;;;;;;;6281083;22;20432;-80
2021/08/15 03:04:25;;;;;;;9.37;5.27;;;19.00;99.90;;;;;;6287198;22;20401;-79
2021/08/15 03:06:52;;;;;;;13.47;5.67;;;;;;;;;;6286717;22;20773;-80
2021/08/15 03:09:24;;;;;;;9.33;5.07;;;18.20;99.90;;;;;;6280600;22;20405;-80
2021/08/15 03:11:52;;;;;;;10.00;5.07;;;;;;;;;;6280513;22;20924;-80
2021/08/15 03:14:19;;;;;;;9.03;4.67;;;;;;;;;;6281192;22;20808;-80
2021/08/15 03:16:46;;;;;;;9.97;7.53;;;;;;;;;;6280932;22;20401;-80
2021/08/15 03:19:16;;;;;;;8.63;6.07;;;;;;;;;;6280611;22;20436;-80
2021/08/15 03:21:49;;;;;;;9.37;5.60;;;18.30;99.90;;;;;;6280078;22;20767;-80
2021/08/15 03:24:16;;;;;;;9.07;5.03;;;;;;;;;;6281680;22;20389;-80
2021/08/15 03:26:46;;;;;;;10.23;5.30;;;17.70;99.90;;;;;;6281671;22;20451;-80
2021/08/15 03:29:13;;;;;;;7.43;4.77;;;17.90;99.90;;;;;;6279910;22;20917;-80
2021/08/15 03:31:41;;;;;;;7.50;4.57;;;;;;;;;;6279426;22;20758;-80
2021/08/15 03:34:11;;;;;;;7.23;4.77;;;17.90;99.90;;;;;;6280328;22;20846;-80
2021/08/15 03:36:43;;;;;;;10.03;4.80;;;17.80;99.90;;;;;;6280757;22;20808;-80
2021/08/15 03:39:11;;;;;;;8.17;4.93;;;17.60;99.90;;;;;;6277818;22;20460;-80
2021/08/15 03:41:38;;;;;;;12.33;5.80;;;;;;;;;;6279810;22;20433;-79
2021/08/15 03:44:05;;;;;;;10.23;6.00;;;18.00;99.90;;;;;;6288819;22;20487;-79
2021/08/15 03:46:37;;;;;;;5.33;4.80;;;18.00;99.90;;;;;;6291282;22;20444;-79
2021/08/15 03:49:04;;;;;;;7.50;5.10;;;;;;;;;;6291510;22;20499;-79
2021/08/15 03:51:31;;;;;;;9.10;5.40;;;;;;;;;;6284876;22;20515;-79
2021/08/15 03:54:01;;;;;;;9.40;4.57;;;18.00;99.90;;;;;;6282627;22;20401;-80
2021/08/15 03:56:32;;;;;;;8.70;5.00;;;17.80;99.90;;;;;;6281180;22;20786;-80
2021/08/15 03:59:01;;;;;;;7.93;5.30;;;;;;;;;;6281477;22;20389;-80
2021/08/15 04:01:28;;;;;;;10.63;5.50;;;;;;;;;;6281470;22;20432;-80
2021/08/15 04:03:57;;;;;;;9.57;6.10;;;;;;;;;;6285794;22;20443;-79
2021/08/15 04:06:38;;;;;;;8.13;5.90;;;17.90;99.90;;;;;;6291607;22;20480;-79
2021/08/15 04:09:08;;;;;;;10.40;4.70;;;;;;;;;;6288972;22;20440;-79
2021/08/15 04:11:40;;;;;;;6.90;4.90;;;17.80;99.90;;;;;;6291930;22;20417;-79
2021/08/15 04:14:07;;;;;;;11.30;5.10;;;17.90;99.90;;;;;;6290215;22;20485;-79
2021/08/15 04:16:36;;;;;;;8.60;5.37;;;17.80;99.90;;;;;;6291826;22;20393;-79
2021/08/15 04:19:03;;;;;;;6.30;5.07;;;;;;;;;;6283369;22;20719;-80
2021/08/15 04:21:33;;;;;;;12.37;6.83;;;;;;;;;;6281278;22;20542;-79
2021/08/15 04:24:01;;;;;;;8.50;5.83;;;17.80;99.90;;;;;;6281672;22;20415;-79
2021/08/15 04:26:30;;;;;;;6.73;4.97;;;17.80;99.90;;;;;;6281326;22;20508;-80
2021/08/15 04:28:59;;;;;;;9.67;5.57;;;17.70;99.90;;;;;;6281761;22;20459;-82
2021/08/15 04:31:31;;;;;;;6.70;5.03;;;;;;;;;;6280961;22;20429;-80
2021/08/15 04:33:58;;;;;;;9.60;6.33;;;;;;;;;;6280992;22;20432;-79
2021/08/15 04:36:25;;;;;;;10.50;5.70;;;;;;;;;;6281096;22;20443;-79
2021/08/15 04:38:52;;;;;;;6.30;5.70;;;;;;;;;;6280501;22;20415;-79
2021/08/15 04:41:19;;;;;;;7.90;6.23;;;;;;;;;;6280587;22;20499;-80
2021/08/15 04:43:48;;;;;;;12.97;9.57;;;17.90;99.90;;;;;;6280861;22;20405;-80
2021/08/15 04:46:16;;;;;;;14.80;9.27;;;18.20;99.90;;;;;;6281229;22;20445;-80
2021/08/15 04:48:45;;;;;;;57.37;36.27;;;17.90;99.90;;;;;;6280956;22;20412;-80
2021/08/15 04:51:12;;;;;;;41.03;26.80;;;17.80;99.90;;;;;;6282274;22;20425;-80
2021/08/15 04:53:38;;;;;;;39.23;26.10;;;17.90;99.90;;;;;;6284216;22;20515;-79
2021/08/15 04:56:05;;;;;;;36.07;24.87;;;18.00;99.90;;;;;;6291022;22;20404;-79
2021/08/15 04:58:32;;;;;;;19.97;11.90;;;;;;;;;;6285355;22;20449;-86
2021/08/15 05:01:01;;;;;;;16.80;11.10;;;18.00;99.90;;;;;;6285817;22;20464;-86
2021/08/15 05:03:29;;;;;;;14.37;8.93;;;18.10;99.90;;;;;;6287193;22;20478;-84
2021/08/15 05:05:56;;;;;;;12.17;5.90;;;18.10;99.90;;;;;;6284612;22;20467;-86
2021/08/15 05:08:22;;;;;;;8.63;5.53;;;18.20;99.90;;;;;;6282956;22;20429;-84
2021/08/15 05:10:49;;;;;;;7.50;6.07;;;18.20;99.90;;;;;;6285672;22;20416;-86
2021/08/15 05:13:15;;;;;;;7.00;5.60;;;18.20;99.90;;;;;;6287982;22;20478;-87
2021/08/15 05:15:42;;;;;;;10.60;6.27;;;18.20;99.90;;;;;;6288471;22;20900;-85
2021/08/15 05:18:10;;;;;;;11.57;6.47;;;18.20;99.90;;;;;;6293014;22;20433;-85
2021/08/15 05:20:38;;;;;;;6.20;5.60;;;18.20;99.90;;;;;;6297806;22;20397;-85
2021/08/15 05:23:05;;;;;;;14.47;6.40;;;18.20;99.90;;;;;;6300913;22;20711;-85
2021/08/15 05:25:32;;;;;;;8.10;5.23;;;18.20;99.90;;;;;;6293937;22;20451;-85
2021/08/15 05:27:59;;;;;;;8.77;5.83;;;18.50;99.90;;;;;;6291498;22;20401;-85
2021/08/15 05:30:26;;;;;;;11.33;6.30;;;18.20;99.90;;;;;;6290673;22;20450;-85
2021/08/15 05:32:53;;;;;;;9.90;5.40;;;18.20;99.90;;;;;;6295739;22;20405;-85
2021/08/15 05:35:20;;;;;;;6.67;5.70;;;18.30;99.90;;;;;;6299672;22;20479;-84
2021/08/15 05:37:48;;;;;;;10.00;6.80;;;18.40;99.90;;;;;;6300318;22;20431;-85
2021/08/15 05:40:14;;;;;;;9.97;6.30;;;18.30;99.90;;;;;;6299308;22;20391;-84
2021/08/15 05:42:41;;;;;;;9.50;5.87;;;18.40;99.90;;;;;;6299381;22;20397;-84
2021/08/15 05:45:09;;;;;;;12.00;7.77;;;18.40;99.90;;;;;;6298790;22;20404;-85
2021/08/15 05:47:36;;;;;;;11.50;5.97;;;18.60;99.90;;;;;;6297027;22;20779;-85
2021/08/15 05:50:04;;;;;;;8.33;5.83;;;18.50;99.90;;;;;;6299370;22;20425;-85
2021/08/15 05:52:30;;;;;;;11.37;8.20;;;18.50;99.90;;;;;;6298829;22;20404;-85
2021/08/15 05:54:58;;;;;;;28.57;19.00;;;18.50;99.90;;;;;;6298055;22;20397;-85
2021/08/15 05:57:26;;;;;;;47.37;27.47;;;18.60;99.90;;;;;;6298404;22;20385;-85
2021/08/15 05:59:52;;;;;;;64.13;41.37;;;18.60;99.90;;;;;;6298883;22;20488;-85
2021/08/15 06:02:19;;;;;;;35.57;23.10;;;18.60;99.90;;;;;;6298519;22;20407;-84
2021/08/15 06:04:46;;;;;;;22.30;16.93;;;18.90;99.90;;;;;;6298968;22;20450;-84
2021/08/15 06:07:13;;;;;;;14.07;9.27;;;18.70;99.90;;;;;;6297902;22;20510;-84
2021/08/15 06:09:39;;;;;;;15.47;6.43;;;18.80;99.90;;;;;;6297542;22;20417;-84
2021/08/15 06:12:08;;;;;;;12.20;7.17;;;18.90;99.90;;;;;;6297029;22;20511;-85
2021/08/15 06:14:36;;;;;;;9.20;5.00;;;18.90;99.90;;;;;;6288127;22;20754;-86
2021/08/15 06:17:03;;;;;;;7.20;4.90;;;19.00;99.90;;;;;;6284556;22;20455;-86
2021/08/15 06:19:29;;;;;;;7.13;5.00;;;19.00;99.90;;;;;;6284333;22;20478;-86
2021/08/15 06:21:56;;;;;;;14.67;6.10;;;19.10;99.90;;;;;;6286269;22;20405;-85
2021/08/15 06:24:23;;;;;;;8.40;5.00;;;19.10;99.90;;;;;;6283841;22;20409;-87
2021/08/15 06:26:49;;;;;;;17.03;5.60;;;19.10;99.90;;;;;;6284647;22;20436;-86
2021/08/15 06:29:17;;;;;;;9.03;4.90;;;19.20;99.90;;;;;;6299233;22;20429;-85
2021/08/15 06:31:44;;;;;;;5.97;5.27;;;19.20;99.90;;;;;;6303943;22;20419;-86
2021/08/15 06:34:10;;;;;;;8.13;5.03;;;19.20;99.90;;;;;;6292714;22;20427;-85
2021/08/15 06:36:37;;;;;;;6.07;4.57;;;19.30;99.90;;;;;;6286702;22;20392;-86
2021/08/15 06:39:05;;;;;;;11.13;4.90;;;19.30;99.90;;;;;;6286743;22;20437;-85
2021/08/15 06:41:32;;;;;;;8.30;4.90;;;19.40;99.90;;;;;;6288296;22;20512;-86
2021/08/15 06:43:58;;;;;;;5.00;4.37;;;19.50;99.90;;;;;;6287150;22;20409;-86
2021/08/15 06:46:26;;;;;;;11.20;4.87;;;19.50;99.90;;;;;;6286131;22;20441;-86
2021/08/15 06:48:53;;;;;;;9.30;4.27;;;19.60;99.90;;;;;;6286870;22;20421;-86
2021/08/15 06:51:20;;;;;;;10.80;4.40;;;19.70;99.90;;;;;;6287003;22;20401;-87
2021/08/15 06:53:46;;;;;;;8.80;4.70;;;19.60;99.90;;;;;;6286676;22;20405;-87
2021/08/15 06:56:13;;;;;;;9.30;4.97;;;19.70;99.90;;;;;;6286591;22;20401;-86
2021/08/15 06:58:40;;;;;;;11.80;4.60;;;20.10;99.90;;;;;;6285128;22;20440;-85
2021/08/15 07:01:08;;;;;;;9.60;4.70;;;19.90;99.90;;;;;;6285606;22;20462;-85
2021/08/15 07:03:36;;;;;;;9.53;4.90;;;19.90;99.90;;;;;;6287000;22;20408;-86
2021/08/15 07:06:03;;;;;;;8.57;5.40;;;19.90;99.90;;;;;;6288422;22;20405;-85
2021/08/15 07:08:30;;;;;;;13.73;5.50;;;20.00;99.90;;;;;;6285896;22;20432;-86
2021/08/15 07:10:56;;;;;;;9.80;5.00;;;20.10;99.90;;;;;;6285675;22;20416;-85
2021/08/15 07:13:23;;;;;;;8.60;5.00;;;20.10;99.90;;;;;;6286398;22;20820;-86
2021/08/15 07:15:50;;;;;;;8.47;5.63;;;20.10;99.90;;;;;;6286809;22;20405;-86
2021/08/15 07:18:17;;;;;;;11.53;6.17;;;20.20;99.90;;;;;;6292250;22;20428;-84
2021/08/15 07:20:45;;;;;;;9.07;5.17;;;20.30;99.90;;;;;;6286788;22;20408;-85
2021/08/15 07:23:12;;;;;;;6.40;4.20;;;20.30;99.90;;;;;;6285733;22;20411;-85
2021/08/15 07:25:39;;;;;;;8.00;4.93;;;19.90;99.90;;;;;;6286408;22;20401;-86
2021/08/15 07:28:06;;;;;;;9.70;5.87;;;20.30;99.90;;;;;;6287534;22;20445;-85
2021/08/15 07:30:33;;;;;;;14.83;5.70;;;20.30;99.90;;;;;;6285317;22;20412;-86
2021/08/15 07:33:02;;;;;;;7.83;4.60;;;20.20;99.90;;;;;;6285614;22;20485;-86
2021/08/15 07:35:30;;;;;;;48.63;7.00;;;21.00;99.90;;;;;;6287129;22;20958;-86
2021/08/15 07:37:59;;;;;;;8.00;5.33;;;20.30;99.90;;;;;;6287402;22;20403;-85
2021/08/15 07:40:26;;;;;;;7.90;4.83;;;20.70;99.90;;;;;;6289324;22;20413;-85
2021/08/15 07:42:54;;;;;;;5.10;4.33;;;20.30;99.90;;;;;;6291113;22;20405;-86
2021/08/15 07:45:22;;;;;;;12.83;4.47;;;20.40;99.90;;;;;;6303370;22;20431;-86
2021/08/15 07:47:49;;;;;;;7.57;4.83;;;20.50;99.90;;;;;;6302841;22;20421;-85
2021/08/15 07:50:16;;;;;;;5.50;4.13;;;20.60;99.90;;;;;;6302469;22;20393;-86
2021/08/15 07:52:43;;;;;;;7.63;4.93;;;20.60;99.90;;;;;;6306243;22;20395;-85
2021/08/15 07:55:11;;;;;;;8.33;4.87;;;20.70;99.90;;;;;;6306258;22;20421;-85
2021/08/15 07:57:38;;;;;;;7.63;4.03;;;20.70;99.90;;;;;;6302092;22;20468;-86
2021/08/15 08:00:06;;;;;;;9.23;5.97;;;20.80;99.90;;;;;;6301568;22;20436;-84
2021/08/15 08:02:33;;;;;;;8.80;4.70;;;20.80;99.90;;;;;;6292671;22;20405;-84
2021/08/15 08:04:59;;;;;;;8.73;5.63;;;20.40;99.90;;;;;;6296173;22;20401;-85
2021/08/15 08:07:26;;;;;;;9.13;4.03;;;20.70;99.90;;;;;;6294406;22;20466;-85
2021/08/15 08:09:53;;;;;;;12.17;4.77;;;20.70;99.90;;;;;;6298777;22;20479;-85
2021/08/15 08:12:27;;;;;;;6.33;5.10;;;20.70;99.90;;;;;;6292490;22;20401;-85
2021/08/15 08:14:53;;;;;;;6.77;5.40;;;20.70;99.90;;;;;;6297454;22;20433;-85
2021/08/15 08:17:20;;;;;;;7.57;4.80;;;20.70;99.90;;;;;;6298462;22;20401;-85
2021/08/15 08:19:47;;;;;;;6.00;4.20;;;20.80;99.90;;;;;;6292063;22;20448;-86
2021/08/15 08:22:15;;;;;;;6.93;4.00;;;20.80;99.90;;;;;;6289724;22;20431;-86
2021/08/15 08:24:42;;;;;;;6.03;3.83;;;20.90;99.90;;;;;;6294192;22;20397;-86
2021/08/15 08:27:09;;;;;;;5.63;3.87;;;21.00;99.90;;;;;;6291465;22;20441;-86
2021/08/15 08:29:36;;;;;;;7.10;3.90;;;21.10;99.90;;;;;;6301834;22;20429;-86
2021/08/15 08:32:04;;;;;;;6.93;4.70;;;21.10;99.90;;;;;;6303485;22;20405;-86
2021/08/15 08:34:30;;;;;;;5.50;4.37;;;21.20;99.90;;;;;;6296938;22;20405;-84
2021/08/15 08:36:57;;;;;;;11.73;4.53;;;21.30;99.90;;;;;;6294825;22;20400;-85
2021/08/15 08:39:23;;;;;;;5.57;4.07;;;21.30;99.90;;;;;;6293814;22;20796;-87
2021/08/15 08:41:51;;;;;;;6.20;4.83;;;21.30;99.90;;;;;;6292552;22;20454;-87
2021/08/15 08:44:18;;;;;;;7.80;4.17;;;21.30;99.90;;;;;;6291417;22;20409;-86
2021/08/15 08:46:50;;;;;;;9.40;4.00;;;21.30;99.90;;;;;;6289644;22;20463;-86
2021/08/15 08:49:17;;;;;;;5.43;3.80;;;21.40;99.90;;;;;;6292092;22;20431;-86
2021/08/15 08:51:46;;;;;;;6.90;4.20;;;21.50;99.90;;;;;;6289390;22;20404;-84
2021/08/15 08:54:14;;;;;;;7.10;4.90;;;21.60;99.90;;;;;;6298375;22;20429;-84
2021/08/15 08:56:41;;;;;;;5.90;3.83;;;21.60;99.90;;;;;;6298605;22;20463;-86
2021/08/15 08:59:08;;;;;;;8.10;4.07;;;21.70;99.90;;;;;;6300697;22;20429;-85
2021/08/15 09:01:34;;;;;;;11.07;3.97;;;21.80;99.90;;;;;;6291142;22;20394;-86
2021/08/15 09:04:02;;;;;;;3.97;3.57;;;21.70;99.90;;;;;;6289352;22;20408;-86
2021/08/15 09:06:31;;;;;;;5.10;3.23;;;21.70;99.90;;;;;;6287753;22;20412;-85
2021/08/15 09:09:10;;;;;;;6.30;4.37;;;21.80;99.90;;;;;;6286339;22;20421;-86
2021/08/15 09:11:36;;;;;;;8.50;5.13;;;21.80;99.90;;;;;;6286934;22;20901;-87
2021/08/15 09:14:05;;;;;;;9.23;4.40;;;21.90;99.90;;;;;;6288027;22;20408;-85
2021/08/15 09:16:57;;;;;;;9.33;4.70;;;21.90;99.90;;;;;;6290958;22;20410;-86
2021/08/15 09:19:34;;;;;;;11.80;6.03;;;22.00;99.90;;;;;;6291715;22;20440;-87
2021/08/15 09:22:17;;;;;;;15.50;10.80;;;22.10;99.90;;;;;;6298514;22;20389;-85
2021/08/15 09:24:46;;;;;;;10.17;8.10;;;22.20;99.90;;;;;;6283524;22;20389;-84
2021/08/15 09:27:19;;;;;;;8.57;5.80;;;22.20;99.90;;;;;;6282038;22;20445;-85
2021/08/15 09:30:05;;;;;;;7.73;6.30;;;22.30;99.90;;;;;;6286228;22;20433;-86
2021/08/15 09:32:32;;;;;;;6.17;4.43;;;22.40;99.90;;;;;;6292682;22;20373;-85
2021/08/15 09:35:02;;;;;;;6.10;3.70;;;22.40;99.90;;;;;;6295264;22;20428;-86
2021/08/15 09:37:30;;;;;;;5.47;3.93;;;22.50;99.90;;;;;;6294267;22;20396;-85
2021/08/15 09:39:57;;;;;;;4.83;3.40;;;22.60;99.90;;;;;;6298942;22;20429;-86
2021/08/15 09:42:42;;;;;;;8.27;4.40;;;22.70;99.90;;;;;;6302019;22;20420;-85
2021/08/15 09:45:13;;;;;;;5.50;3.70;;;22.70;99.90;;;;;;6305035;22;20385;-84
2021/08/15 09:47:40;;;;;;;6.03;4.73;;;22.70;99.90;;;;;;6305297;22;20447;-84
2021/08/15 09:50:18;;;;;;;5.70;5.10;;;22.70;99.90;;;;;;6305268;22;20405;-86
2021/08/15 09:52:45;;;;;;;5.57;4.40;;;22.70;99.90;;;;;;6305139;22;20373;-84
2021/08/15 09:55:12;;;;;;;4.43;3.70;;;22.70;99.90;;;;;;6305110;22;20397;-84
2021/08/15 09:57:39;;;;;;;5.70;4.37;;;22.70;99.90;;;;;;6305120;22;20458;-85
2021/08/15 10:00:27;;;;;;;4.43;4.00;;;22.70;99.90;;;;;;6303542;22;20436;-86
2021/08/15 10:02:59;;;;;;;5.60;3.10;;;22.70;99.90;;;;;;6304732;22;20392;-87
2021/08/15 10:05:26;;;;;;;4.17;3.47;;;22.70;99.90;;;;;;6302727;22;20383;-85
2021/08/15 10:07:53;;;;;;;5.77;3.23;;;23.00;99.90;;;;;;6299643;22;20458;-85
2021/08/15 10:10:20;;;;;;;7.77;4.50;;;23.00;99.90;;;;;;6299581;22;20401;-85
2021/08/15 10:12:47;;;;;;;4.93;4.00;;;22.60;99.90;;;;;;6295761;22;20400;-86
2021/08/15 10:15:15;;;;;;;4.83;3.60;;;22.70;99.90;;;;;;6292683;22;20408;-86
2021/08/15 10:17:44;;;;;;;8.97;4.10;;;22.80;99.90;;;;;;6291439;22;20401;-83
2021/08/15 10:20:18;;;;;;;9.23;5.40;;;22.50;99.90;;;;;;6291371;22;20428;-85
2021/08/15 10:22:46;;;;;;;9.70;5.27;;;22.90;99.90;;;;;;6289420;22;20381;-85
2021/08/15 10:25:32;;;;;;;5.90;5.10;;;22.80;99.90;;;;;;6291234;22;20409;-85
2021/08/15 10:27:58;;;;;;;11.07;4.83;;;23.20;99.90;;;;;;6285893;22;20425;-85
2021/08/15 10:30:45;;;;;;;6.93;4.20;;;23.20;99.90;;;;;;6286205;22;20436;-85
2021/08/15 10:33:18;;;;;;;7.70;4.83;;;23.30;99.90;;;;;;6287250;22;20499;-86
2021/08/15 10:36:26;;;;;;;6.10;3.90;;;23.40;99.90;;;;;;6293962;22;20452;-85
2021/08/15 10:38:57;;;;;;;6.67;4.53;;;23.50;99.90;;;;;;6275778;22;20463;-85
2021/08/15 10:41:53;;;;;;;8.13;6.20;;;23.60;99.90;;;;;;6283240;22;20397;-86
2021/08/15 10:44:23;;;;;;;10.83;6.80;;;23.60;99.90;;;;;;6284792;22;20415;-86
2021/08/15 10:47:12;;;;;;;5.90;4.50;;;23.60;99.90;;;;;;6288031;22;20459;-87
2021/08/15 10:50:04;;;;;;;11.20;7.70;;;23.60;99.90;;;;;;6286949;22;20420;-86
2021/08/15 10:52:39;;;;;;;7.10;5.30;;;23.50;99.90;;;;;;6264852;22;20459;-86
2021/08/15 10:55:13;;;;;;;7.53;4.70;;;23.40;99.90;;;;;;6285251;22;20388;-85
2021/08/15 10:57:44;;;;;;;7.17;5.07;;;23.30;99.90;;;;;;6284472;22;20408;-87
2021/08/15 11:01:12;;;;;;;4.57;3.63;;;23.40;99.90;;;;;;6280455;22;20461;-81
2021/08/15 11:21:44;;;;;;;8.90;5.40;;;23.50;99.90;;;;;;6159880;23;20392;-81
2021/08/15 11:44:09;;;;;;;6.50;5.00;;;;;;;;;;6098766;22;20451;-84
2021/08/15 11:46:36;;;;;;;6.47;4.83;;;;;;;;;;6289806;22;20472;-84
2021/08/15 11:49:03;;;;;;;10.30;8.77;;;;;;;;;;6290406;22;20444;-85
2021/08/15 11:51:31;;;;;;;8.13;6.23;;;23.90;99.90;;;;;;6290444;22;20405;-84
2021/08/15 11:53:58;;;;;;;5.30;4.80;;;23.90;99.90;;;;;;6288968;22;20421;-85
2021/08/15 11:56:25;;;;;;;8.13;5.30;;;24.30;99.90;;;;;;6288351;22;20413;-85
2021/08/15 11:58:53;;;;;;;7.80;6.10;;;24.00;99.90;;;;;;6285896;22;20413;-85
2021/08/15 12:01:21;;;;;;;5.50;5.00;;;24.10;99.90;;;;;;6284569;22;20420;-85
2021/08/15 12:03:57;;;;;;;11.13;6.20;;;24.10;99.90;;;;;;6286552;22;20424;-84
2021/08/15 12:06:23;;;;;;;7.87;5.50;;;24.40;99.90;;;;;;6286531;22;20769;-84
2021/08/15 12:08:51;;;;;;;7.80;4.40;;;24.10;99.90;;;;;;6285057;22;20502;-85
2021/08/15 12:11:23;;;;;;;8.80;5.20;;;24.10;99.90;;;;;;6285406;22;20412;-84
2021/08/15 12:13:50;;;;;;;8.33;5.13;;;24.00;99.90;;;;;;6284537;22;20433;-84
2021/08/15 12:16:17;;;;;;;7.93;5.13;;;24.00;99.90;;;;;;6284891;22;20405;-85
2021/08/15 12:18:52;;;;;;;7.10;5.60;;;24.00;99.90;;;;;;6286154;22;20398;-84
2021/08/15 12:21:22;;;;;;;7.80;5.30;;;24.00;99.90;;;;;;6285242;22;20403;-84
2021/08/15 12:24:02;;;;;;;7.37;5.00;;;24.10;99.90;;;;;;6286670;22;20547;-84
2021/08/15 12:26:31;;;;;;;7.20;5.17;;;24.20;99.90;;;;;;6295416;22;20374;-84
2021/08/15 12:29:00;;;;;;;7.30;5.20;;;24.30;99.90;;;;;;6287588;22;20464;-84
2021/08/15 12:31:29;;;;;;;7.17;5.50;;;24.40;99.90;;;;;;6290787;22;20410;-84
2021/08/15 12:34:17;;;;;;;7.30;5.43;;;24.40;99.90;;;;;;6292482;22;20432;-83
2021/08/15 12:36:47;;;;;;;6.20;4.77;;;24.40;99.90;;;;;;6287209;22;20443;-84
2021/08/15 12:39:16;;;;;;;7.47;5.87;;;24.40;99.90;;;;;;6292429;22;20462;-85
2021/08/15 12:41:56;;;;;;;5.87;5.30;;;24.00;99.90;;;;;;6292388;22;20401;-84
2021/08/15 12:44:25;;;;;;;8.80;6.47;;;24.40;99.90;;;;;;6290433;22;20425;-84
2021/08/15 12:47:06;;;;;;;9.00;6.57;;;24.50;99.90;;;;;;6290508;22;20409;-85
2021/08/15 12:49:39;;;;;;;10.00;5.20;;;24.50;99.90;;;;;;6284392;22;20451;-85
2021/08/15 12:52:18;;;;;;;9.40;6.17;;;24.40;99.90;;;;;;6285238;22;20393;-85
2021/08/15 12:55:19;;;;;;;8.20;5.50;;;24.40;99.90;;;;;;6288309;22;20511;-86
2021/08/15 12:57:46;;;;;;;7.47;5.90;;;24.60;99.90;;;;;;6294897;22;20439;-85
2021/08/15 13:00:17;;;;;;;6.97;5.20;;;24.50;99.90;;;;;;6285714;22;20471;-84
2021/08/15 13:02:45;;;;;;;8.00;5.70;;;24.40;99.90;;;;;;6285841;22;20389;-85
2021/08/15 13:05:13;;;;;;;9.47;6.83;;;24.30;99.90;;;;;;6287354;22;20421;-86
2021/08/15 13:07:40;;;;;;;9.43;5.57;;;24.30;99.90;;;;;;6286384;22;20405;-86
2021/08/15 13:10:08;;;;;;;10.43;7.53;;;24.30;99.90;;;;;;6285282;22;20405;-84
2021/08/15 13:12:36;;;;;;;11.87;8.47;;;24.30;99.90;;;;;;6286025;22;20411;-85
2021/08/15 13:15:04;;;;;;;7.47;5.97;;;24.20;99.90;;;;;;6283902;22;20421;-84
2021/08/15 13:17:31;;;;;;;7.80;5.57;;;24.20;99.90;;;;;;6284324;22;20416;-84
2021/08/15 13:19:58;;;;;;;9.73;4.60;;;24.30;99.90;;;;;;6284964;22;20491;-85
2021/08/15 13:22:25;;;;;;;5.80;4.80;;;24.40;99.90;;;;;;6282971;22;20405;-84
2021/08/15 13:24:52;;;;;;;7.80;5.20;;;24.50;99.90;;;;;;6282210;22;20420;-85
2021/08/15 13:27:18;;;;;;;14.77;11.30;;;24.50;99.90;;;;;;6283369;22;20741;-86
2021/08/15 13:29:46;;;;;;;7.80;5.80;;;24.50;99.90;;;;;;6282776;22;20441;-86
2021/08/15 13:32:13;;;;;;;15.57;11.10;;;;;;;;;;6282971;22;20463;-85
2021/08/15 13:34:40;;;;;;;8.10;6.73;;;24.50;99.90;;;;;;6281599;22;20425;-85
2021/08/15 13:37:11;;;;;;;8.57;5.10;;;24.50;99.90;;;;;;6282142;22;20409;-85
2021/08/15 13:39:39;;;;;;;7.80;6.53;;;24.60;99.90;;;;;;6282945;22;20390;-86
2021/08/15 13:42:06;;;;;;;7.80;6.53;;;24.70;99.90;;;;;;6282773;22;20411;-85
2021/08/15 13:44:33;;;;;;;8.13;5.87;;;24.70;99.90;;;;;;6281268;22;20464;-85
2021/08/15 13:47:01;;;;;;;8.37;5.77;;;25.40;99.90;;;;;;6281544;22;20916;-85
2021/08/15 13:49:28;;;;;;;7.00;5.50;;;25.00;99.90;;;;;;6283669;22;20429;-85
2021/08/15 13:51:54;;;;;;;14.73;5.87;;;25.10;99.90;;;;;;6283549;22;20903;-84
2021/08/15 13:54:21;;;;;;;8.27;5.20;;;25.00;99.90;;;;;;6284301;22;20429;-85
2021/08/15 13:56:47;;;;;;;8.53;5.97;;;24.70;99.90;;;;;;6284412;22;20737;-85
2021/08/15 13:59:14;;;;;;;6.80;5.27;;;24.60;99.90;;;;;;6282713;22;20401;-85
2021/08/15 14:01:41;;;;;;;5.90;5.30;;;24.70;99.90;;;;;;6288820;22;20431;-85
2021/08/15 14:04:08;;;;;;;5.20;4.80;;;24.70;99.90;;;;;;6286522;22;20463;-84
2021/08/15 14:06:35;;;;;;;6.13;4.90;;;24.80;99.90;;;;;;6285492;22;20897;-84
2021/08/15 14:09:07;;;;;;;8.40;6.17;;;25.00;99.90;;;;;;6288213;22;20433;-86
2021/08/15 14:11:35;;;;;;;7.87;5.57;;;;;;;;;;6286435;22;20441;-84
2021/08/15 14:14:02;;;;;;;8.10;6.13;;;25.20;99.90;;;;;;6281841;22;20460;-85